This is the latest recevied weather packets stored in our database for station/object MKSRDG. If no packets are shown the sender has not sent any weather packets the latest 10 day(s).
| Time | Temp. | Humidity | Pressure | Rain* | Wind** | Luminosity | Snow |
|---|---|---|---|---|---|---|---|
| 1777073115 | 16.67° C | 40% | 1013 hPa | 0 mm | - | 666 W/m² | - |
| 1777072215 | 17.22° C | 43% | 1013.3 hPa | 0 mm | - | 700 W/m² | - |
| 1777071315 | 16.67° C | 42% | 1013.5 hPa | 0 mm | - | 740 W/m² | - |
| 1777070415 | 17.22° C | 41% | 1013.7 hPa | 0 mm | - | 775 W/m² | - |
| 1777069515 | 16.67° C | 43% | 1013.9 hPa | 0 mm | - | 807 W/m² | - |
| 1777068615 | 16.67° C | 48% | 1014 hPa | 0 mm | - | 833 W/m² | - |
| 1777067716 | 16.67° C | 47% | 1014.2 hPa | 0 mm | - | 861 W/m² | - |
| 1777066816 | 16.67° C | 45% | 1014.1 hPa | 0 mm | - | 884 W/m² | - |
| 1777065916 | 16.67° C | 50% | 1014.3 hPa | 0 mm | - | 898 W/m² | - |
| 1777065015 | 16.67° C | 51% | 1014.5 hPa | 0 mm | - | 912 W/m² | - |
| 1777064116 | 16.11° C | 50% | 1014.6 hPa | 0 mm | - | 923 W/m² | - |
| 1777063216 | 16.11° C | 56% | 1014.8 hPa | 0 mm | - | 926 W/m² | - |
| 1777062316 | 15.56° C | 60% | 1014.9 hPa | 0 mm | - | 937 W/m² | - |
| 1777061416 | 15° C | 65% | 1015.1 hPa | 0 mm | - | 933 W/m² | - |
| 1777060516 | 15° C | 65% | 1015.4 hPa | 0 mm | - | 930 W/m² | - |
| 1777059616 | 14.44° C | 72% | 1015.7 hPa | 0 mm | - | 925 W/m² | - |
| 1777058716 | 13.89° C | 75% | 1015.9 hPa | 0 mm | - | 909 W/m² | - |
| 1777057816 | 13.33° C | 78% | 1016.1 hPa | 0 mm | - | 898 W/m² | - |
| 1777056916 | 12.78° C | 78% | 1016.4 hPa | 0 mm | - | 884 W/m² | - |
| 1777056016 | 11.67° C | 85% | 1016.6 hPa | 0 mm | - | 860 W/m² | - |
| 1777055116 | 10.56° C | 84% | 1016.8 hPa | 0 mm | - | 816 W/m² | - |
| 1777054216 | 10° C | 86% | 1016.9 hPa | 0 mm | - | 807 W/m² | - |
| 1777053316 | 9.44° C | 86% | 1016.9 hPa | 0 mm | - | 777 W/m² | - |
| 1777052416 | 8.33° C | 88% | 1016.9 hPa | 0 mm | - | 738 W/m² | - |
| 1777051516 | 7.78° C | 91% | 1016.9 hPa | 0 mm | - | 744 W/m² | - |
* Rain latest hour (hover to see other rain measurements)
** Current wind speed in m/s (hover to see current wind gust speed)